PWSweather.com
Personal Weather Stations
Station Observations
TARRYHILL
Tarrytown, NY 10591

Tarrytown, NY 10591

Lat: 41.05185, Lon: -73.85296

Elevation: 341

Station Type: Davis Vantage Vue

Latest ConditionsUpdated 6:00:00 AM EST Thursday, Nov 23, 2017
Currently Today's Max Today's Min Today's Average
Temperature 29.8°F-1.2°C 33.6°F0.9°C 29.8°F-1.2°C 31.3°F-0.4°C
Dew Point 21.5°F-5.8°C 23.4°F-4.8°C 21.4°F-5.9°C 22.0°F-5.6°C
Winds Calm Calm 4.6 mph NE7.4 kmh NE - 1.3 mph 2.1 kmh
Wind Gusts 1.2 mph1.9 kmh 11.5 mph18.5 kmh - -
Humidity 71% 71% 65% 68%
Pressure 30.10 in1019.3 mb 30.11 in1019.6 mb 30.08 in1018.6 mb -
Hour Temp Dew Point Humidity Winds Wind Gusts Pressure Precip Precip Rate Daily Precip Total
06:00 AM 29.8°F-1.2°C 21.5°F-5.8°C 71% Calm Calm 1.2 mph1.9 kmh 30.10 in1019.3 mb - 0.00 in0.0 mm 0.00 in0.0 mm
05:45 AM 30.2°F-1.0°C 21.6°F-5.8°C 70% Calm Calm -- 30.10 in1019.3 mb - 0.00 in0.0 mm 0.00 in0.0 mm
05:30 AM 30.7°F-0.7°C 22.4°F-5.3°C 71% 1.2 mph N1.9 kmh N 1.2 mph1.9 kmh 30.09 in1019.0 mb - 0.00 in0.0 mm 0.00 in0.0 mm
05:15 AM 31.0°F-0.6°C 22.7°F-5.2°C 71% Calm Calm 1.2 mph1.9 kmh 30.08 in1018.6 mb - 0.00 in0.0 mm 0.00 in0.0 mm
05:00 AM 30.9°F-0.6°C 22.3°F-5.4°C 70% 1.2 mph N1.9 kmh N 1.2 mph1.9 kmh 30.08 in1018.6 mb - 0.00 in0.0 mm 0.00 in0.0 mm
04:45 AM 30.9°F-0.6°C 22.3°F-5.4°C 70% 2.3 mph NNE3.7 kmh NNE 6.9 mph11.1 kmh 30.08 in1018.6 mb - 0.00 in0.0 mm 0.00 in0.0 mm
04:30 AM 30.8°F-0.7°C 22.2°F-5.4°C 70% 2.3 mph NE3.7 kmh NE 11.5 mph18.5 kmh 30.08 in1018.6 mb - 0.00 in0.0 mm 0.00 in0.0 mm
04:15 AM 30.9°F-0.6°C 22.3°F-5.4°C 70% 4.6 mph NE7.4 kmh NE 8.1 mph13.0 kmh 30.08 in1018.6 mb - 0.00 in0.0 mm 0.00 in0.0 mm
04:00 AM 30.8°F-0.7°C 22.2°F-5.4°C 70% 2.3 mph N3.7 kmh N 6.9 mph11.1 kmh 30.09 in1019.0 mb - 0.00 in0.0 mm 0.00 in0.0 mm
03:45 AM 30.8°F-0.7°C 21.8°F-5.7°C 69% 1.2 mph NE1.9 kmh NE 2.3 mph3.7 kmh 30.10 in1019.3 mb - 0.00 in0.0 mm 0.00 in0.0 mm
03:30 AM 30.6°F-0.8°C 21.6°F-5.8°C 69% 1.2 mph NW1.9 kmh NW 4.6 mph7.4 kmh 30.10 in1019.3 mb - 0.00 in0.0 mm 0.00 in0.0 mm
03:15 AM 30.6°F-0.8°C 21.7°F-5.7°C 69% 1.2 mph N1.9 kmh N 2.3 mph3.7 kmh 30.10 in1019.3 mb - 0.00 in0.0 mm 0.00 in0.0 mm
03:00 AM 30.8°F-0.7°C 21.5°F-5.8°C 68% Calm Calm 1.2 mph1.9 kmh 30.11 in1019.6 mb - 0.00 in0.0 mm 0.00 in0.0 mm
02:45 AM 31.1°F-0.5°C 21.8°F-5.7°C 68% 1.2 mph WNW1.9 kmh WNW 2.3 mph3.7 kmh 30.11 in1019.6 mb - 0.00 in0.0 mm 0.00 in0.0 mm
02:30 AM 31.2°F-0.4°C 21.5°F-5.8°C 67% 1.2 mph S1.9 kmh S 1.2 mph1.9 kmh 30.11 in1019.6 mb - 0.00 in0.0 mm 0.00 in0.0 mm
02:15 AM 31.3°F-0.4°C 21.6°F-5.8°C 67% 1.2 mph ESE1.9 kmh ESE 2.3 mph3.7 kmh 30.10 in1019.3 mb - 0.00 in0.0 mm 0.00 in0.0 mm
02:00 AM 31.5°F-0.3°C 21.4°F-5.9°C 66% 1.2 mph W1.9 kmh W 4.6 mph7.4 kmh 30.09 in1019.0 mb - 0.00 in0.0 mm 0.00 in0.0 mm
01:45 AM 31.6°F-0.2°C 21.5°F-5.8°C 66% 2.3 mph E3.7 kmh E 3.5 mph5.6 kmh 30.09 in1019.0 mb - 0.00 in0.0 mm 0.00 in0.0 mm
01:30 AM 31.8°F-0.1°C 21.7°F-5.7°C 66% 1.2 mph SW1.9 kmh SW 3.5 mph5.6 kmh 30.08 in1018.6 mb - 0.00 in0.0 mm 0.00 in0.0 mm
01:15 AM 32.0°F0.0°C 21.6°F-5.8°C 65% 1.2 mph ENE1.9 kmh ENE 2.3 mph3.7 kmh 30.09 in1019.0 mb - 0.00 in0.0 mm 0.00 in0.0 mm
01:00 AM 32.1°F0.1°C 21.7°F-5.7°C 65% 1.2 mph N1.9 kmh N 2.3 mph3.7 kmh 30.08 in1018.6 mb - 0.00 in0.0 mm 0.00 in0.0 mm
12:45 AM 32.4°F0.2°C 22.3°F-5.4°C 66% 1.2 mph N1.9 kmh N 1.2 mph1.9 kmh 30.08 in1018.6 mb - 0.00 in0.0 mm 0.00 in0.0 mm
12:30 AM 32.8°F0.4°C 22.7°F-5.2°C 66% 2.3 mph WSW3.7 kmh WSW 3.5 mph5.6 kmh 30.08 in1018.6 mb - 0.00 in0.0 mm 0.00 in0.0 mm
12:15 AM 33.2°F0.7°C 22.7°F-5.2°C 65% Calm Calm 2.3 mph3.7 kmh 30.09 in1019.0 mb - 0.00 in0.0 mm 0.00 in0.0 mm
12:00 AM 33.6°F0.9°C 23.4°F-4.8°C 66% 1.2 mph N1.9 kmh N 4.6 mph7.4 kmh 30.08 in1018.6 mb - 0.00 in0.0 mm 0.00 in0.0 mm